sensor_id;sensor_type;location;lat;lon;timestamp;pressure;altitude;pressure_sealevel;temperature;humidity
13124;BME280;6627;50.920;12.050;2023-12-29T00:01:34;98337.97;;;12.81;51.80
13124;BME280;6627;50.920;12.050;2023-12-29T00:04:01;98356.00;;;12.95;51.87
13124;BME280;6627;50.920;12.050;2023-12-29T00:06:29;98293.44;;;12.65;51.80
13124;BME280;6627;50.920;12.050;2023-12-29T00:08:56;98369.88;;;13.70;50.29
13124;BME280;6627;50.920;12.050;2023-12-29T00:11:27;98300.69;;;12.91;51.37
13124;BME280;6627;50.920;12.050;2023-12-29T00:13:57;98375.00;;;14.13;49.46
13124;BME280;6627;50.920;12.050;2023-12-29T00:16:24;98374.63;;;13.52;50.43
13124;BME280;6627;50.920;12.050;2023-12-29T00:18:54;98329.94;;;13.82;49.32
13124;BME280;6627;50.920;12.050;2023-12-29T00:21:21;98363.41;;;14.04;49.58
13124;BME280;6627;50.920;12.050;2023-12-29T00:23:48;98359.25;;;13.98;49.28
13124;BME280;6627;50.920;12.050;2023-12-29T00:26:16;98366.06;;;14.12;48.93
13124;BME280;6627;50.920;12.050;2023-12-29T00:28:45;98249.00;;;13.50;49.01
13124;BME280;6627;50.920;12.050;2023-12-29T00:31:14;98400.69;;;14.66;48.11
13124;BME280;6627;50.920;12.050;2023-12-29T00:33:42;98315.97;;;14.05;48.81
13124;BME280;6627;50.920;12.050;2023-12-29T00:36:14;98385.47;;;14.77;47.67
13124;BME280;6627;50.920;12.050;2023-12-29T00:38:44;98381.44;;;14.83;47.51
13124;BME280;6627;50.920;12.050;2023-12-29T00:41:11;98371.00;;;15.22;46.31
13124;BME280;6627;50.920;12.050;2023-12-29T00:43:39;98296.19;;;14.17;48.28
13124;BME280;6627;50.920;12.050;2023-12-29T00:46:14;98350.00;;;14.53;48.23
13124;BME280;6627;50.920;12.050;2023-12-29T00:48:43;98349.56;;;14.63;47.78
13124;BME280;6627;50.920;12.050;2023-12-29T00:51:10;98314.28;;;14.46;47.53
13124;BME280;6627;50.920;12.050;2023-12-29T00:53:38;98339.81;;;14.62;47.45
13124;BME280;6627;50.920;12.050;2023-12-29T00:56:11;98296.81;;;14.47;47.19
13124;BME280;6627;50.920;12.050;2023-12-29T00:58:39;98309.03;;;14.28;47.93
13124;BME280;6627;50.920;12.050;2023-12-29T01:01:08;98340.22;;;13.98;49.75
13124;BME280;6627;50.920;12.050;2023-12-29T01:03:38;98267.00;;;13.63;49.62
13124;BME280;6627;50.920;12.050;2023-12-29T01:06:06;98309.81;;;14.29;48.35
13124;BME280;6627;50.920;12.050;2023-12-29T01:08:34;98334.75;;;14.52;48.12
13124;BME280;6627;50.920;12.050;2023-12-29T01:11:02;98331.16;;;14.60;47.87
13124;BME280;6627;50.920;12.050;2023-12-29T01:13:29;98373.31;;;15.32;46.72
13124;BME280;6627;50.920;12.050;2023-12-29T01:15:56;98248.66;;;13.72;49.19
13124;BME280;6627;50.920;12.050;2023-12-29T01:18:26;98262.47;;;13.67;49.27
13124;BME280;6627;50.920;12.050;2023-12-29T01:20:54;98213.13;;;13.35;49.18
13124;BME280;6627;50.920;12.050;2023-12-29T01:23:22;98277.75;;;13.38;50.28
13124;BME280;6627;50.920;12.050;2023-12-29T01:25:49;98369.00;;;14.41;48.93
13124;BME280;6627;50.920;12.050;2023-12-29T01:28:16;98228.19;;;13.03;50.28
13124;BME280;6627;50.920;12.050;2023-12-29T01:30:44;98252.06;;;13.27;50.43
13124;BME280;6627;50.920;12.050;2023-12-29T01:33:11;98270.44;;;13.30;50.40
13124;BME280;6627;50.920;12.050;2023-12-29T01:35:39;98309.66;;;13.29;51.28
13124;BME280;6627;50.920;12.050;2023-12-29T01:38:10;98318.91;;;14.00;49.30
13124;BME280;6627;50.920;12.050;2023-12-29T01:40:44;98363.94;;;14.51;48.89
13124;BME280;6627;50.920;12.050;2023-12-29T01:43:13;98279.09;;;13.74;49.68
13124;BME280;6627;50.920;12.050;2023-12-29T01:45:41;98225.31;;;13.71;49.06
13124;BME280;6627;50.920;12.050;2023-12-29T01:48:10;98233.56;;;13.42;49.87
13124;BME280;6627;50.920;12.050;2023-12-29T01:50:39;98238.75;;;13.34;49.93
13124;BME280;6627;50.920;12.050;2023-12-29T01:53:07;98309.72;;;14.04;49.56
13124;BME280;6627;50.920;12.050;2023-12-29T01:55:36;98161.81;;;12.83;50.75
13124;BME280;6627;50.920;12.050;2023-12-29T01:58:04;98269.91;;;13.58;50.34
13124;BME280;6627;50.920;12.050;2023-12-29T02:00:33;98223.41;;;13.51;49.88
13124;BME280;6627;50.920;12.050;2023-12-29T02:03:01;98277.75;;;13.80;49.94
13124;BME280;6627;50.920;12.050;2023-12-29T02:05:30;98293.19;;;13.68;51.03
13124;BME280;6627;50.920;12.050;2023-12-29T02:07:58;98246.16;;;13.25;50.98
13124;BME280;6627;50.920;12.050;2023-12-29T02:10:27;98155.09;;;13.10;49.93
13124;BME280;6627;50.920;12.050;2023-12-29T02:12:56;98277.41;;;13.10;52.10
13124;BME280;6627;50.920;12.050;2023-12-29T02:15:26;98274.03;;;14.18;49.13
13124;BME280;6627;50.920;12.050;2023-12-29T02:18:01;98145.44;;;13.55;49.08
13124;BME280;6627;50.920;12.050;2023-12-29T02:20:30;98260.03;;;14.07;49.29
13124;BME280;6627;50.920;12.050;2023-12-29T02:22:57;98170.69;;;13.22;50.38
13124;BME280;6627;50.920;12.050;2023-12-29T02:25:26;98247.34;;;13.78;49.70
13124;BME280;6627;50.920;12.050;2023-12-29T02:27:59;98342.63;;;14.53;49.53
13124;BME280;6627;50.920;12.050;2023-12-29T02:30:36;98215.19;;;13.09;51.32
13124;BME280;6627;50.920;12.050;2023-12-29T02:33:08;98320.91;;;13.91;50.76
13124;BME280;6627;50.920;12.050;2023-12-29T02:35:42;98193.00;;;13.07;51.24
13124;BME280;6627;50.920;12.050;2023-12-29T02:38:11;98279.59;;;13.88;50.25
13124;BME280;6627;50.920;12.050;2023-12-29T02:40:40;98222.34;;;13.43;50.52
13124;BME280;6627;50.920;12.050;2023-12-29T02:43:09;98223.28;;;12.97;51.83
13124;BME280;6627;50.920;12.050;2023-12-29T02:45:36;98314.47;;;13.74;51.39
13124;BME280;6627;50.920;12.050;2023-12-29T02:48:04;98184.50;;;12.58;52.34
13124;BME280;6627;50.920;12.050;2023-12-29T02:50:32;98239.97;;;12.86;52.69
13124;BME280;6627;50.920;12.050;2023-12-29T02:53:02;98308.28;;;13.65;51.28
13124;BME280;6627;50.920;12.050;2023-12-29T02:55:30;98302.91;;;13.77;51.36
13124;BME280;6627;50.920;12.050;2023-12-29T02:57:58;98251.59;;;13.67;50.38
13124;BME280;6627;50.920;12.050;2023-12-29T03:00:27;98209.69;;;13.26;51.31
13124;BME280;6627;50.920;12.050;2023-12-29T03:03:13;98253.69;;;13.20;52.12
13124;BME280;6627;50.920;12.050;2023-12-29T03:05:49;98265.41;;;13.62;50.91
13124;BME280;6627;50.920;12.050;2023-12-29T03:08:16;98205.44;;;13.37;50.95
13124;BME280;6627;50.920;12.050;2023-12-29T03:10:44;98284.31;;;13.79;50.87
13124;BME280;6627;50.920;12.050;2023-12-29T03:13:12;98212.41;;;13.26;51.28
13124;BME280;6627;50.920;12.050;2023-12-29T03:15:40;98301.50;;;13.71;51.54
13124;BME280;6627;50.920;12.050;2023-12-29T03:18:07;98163.09;;;13.07;51.28
13124;BME280;6627;50.920;12.050;2023-12-29T03:20:34;98217.50;;;13.70;50.39
13124;BME280;6627;50.920;12.050;2023-12-29T03:23:03;98225.13;;;13.34;51.71
13124;BME280;6627;50.920;12.050;2023-12-29T03:25:48;98282.75;;;14.45;49.50
13124;BME280;6627;50.920;12.050;2023-12-29T03:28:17;98245.41;;;14.12;49.68
13124;BME280;6627;50.920;12.050;2023-12-29T03:30:44;98277.50;;;14.39;49.36
13124;BME280;6627;50.920;12.050;2023-12-29T03:33:15;98317.16;;;15.07;48.46
13124;BME280;6627;50.920;12.050;2023-12-29T03:35:43;98302.59;;;15.15;48.17
13124;BME280;6627;50.920;12.050;2023-12-29T03:38:10;98118.66;;;13.45;49.70
13124;BME280;6627;50.920;12.050;2023-12-29T03:40:41;98295.41;;;14.86;48.60
13124;BME280;6627;50.920;12.050;2023-12-29T03:43:09;98298.72;;;15.16;47.52
13124;BME280;6627;50.920;12.050;2023-12-29T03:45:38;98268.50;;;14.72;48.79
13124;BME280;6627;50.920;12.050;2023-12-29T03:48:08;98213.63;;;14.74;47.29
13124;BME280;6627;50.920;12.050;2023-12-29T03:50:39;98266.91;;;15.32;46.66
13124;BME280;6627;50.920;12.050;2023-12-29T03:53:07;98195.56;;;14.81;46.82
13124;BME280;6627;50.920;12.050;2023-12-29T03:55:34;98220.13;;;15.46;45.60
13124;BME280;6627;50.920;12.050;2023-12-29T03:58:03;98215.50;;;15.62;45.00
13124;BME280;6627;50.920;12.050;2023-12-29T04:00:31;98277.75;;;16.25;44.34
13124;BME280;6627;50.920;12.050;2023-12-29T04:03:16;98046.84;;;14.96;44.83
13124;BME280;6627;50.920;12.050;2023-12-29T04:05:46;98186.78;;;15.53;45.25
13124;BME280;6627;50.920;12.050;2023-12-29T04:08:24;98206.72;;;15.81;44.78
13124;BME280;6627;50.920;12.050;2023-12-29T04:10:51;98148.69;;;15.56;44.43
13124;BME280;6627;50.920;12.050;2023-12-29T04:13:18;98145.47;;;15.26;45.33
13124;BME280;6627;50.920;12.050;2023-12-29T04:15:45;98194.41;;;15.87;44.35
13124;BME280;6627;50.920;12.050;2023-12-29T04:18:13;98115.72;;;15.49;44.40
13124;BME280;6627;50.920;12.050;2023-12-29T04:20:42;98147.00;;;15.52;44.83
13124;BME280;6627;50.920;12.050;2023-12-29T04:23:10;98125.75;;;15.45;44.64
13124;BME280;6627;50.920;12.050;2023-12-29T04:25:40;98106.09;;;15.39;44.77
13124;BME280;6627;50.920;12.050;2023-12-29T04:28:08;98079.03;;;15.47;44.06
13124;BME280;6627;50.920;12.050;2023-12-29T04:30:36;98126.66;;;15.77;44.27
13124;BME280;6627;50.920;12.050;2023-12-29T04:33:23;98098.03;;;15.43;44.39
13124;BME280;6627;50.920;12.050;2023-12-29T04:35:51;98122.41;;;15.64;44.41
13124;BME280;6627;50.920;12.050;2023-12-29T04:38:19;98124.91;;;15.57;44.66
13124;BME280;6627;50.920;12.050;2023-12-29T04:40:47;98162.44;;;16.04;44.21
13124;BME280;6627;50.920;12.050;2023-12-29T04:43:28;98155.22;;;15.96;44.11
13124;BME280;6627;50.920;12.050;2023-12-29T04:45:55;98047.41;;;15.02;44.96
13124;BME280;6627;50.920;12.050;2023-12-29T04:48:24;98146.91;;;15.76;44.32
13124;BME280;6627;50.920;12.050;2023-12-29T04:51:09;98172.22;;;16.05;44.28
13124;BME280;6627;50.920;12.050;2023-12-29T04:53:37;98033.00;;;15.17;44.25
13124;BME280;6627;50.920;12.050;2023-12-29T04:56:05;98081.69;;;15.59;43.78
13124;BME280;6627;50.920;12.050;2023-12-29T04:58:32;98074.41;;;15.79;43.44
13124;BME280;6627;50.920;12.050;2023-12-29T05:01:16;98136.34;;;16.54;42.38
13124;BME280;6627;50.920;12.050;2023-12-29T05:04:04;98089.03;;;16.18;42.71
13124;BME280;6627;50.920;12.050;2023-12-29T05:06:32;97983.47;;;15.15;44.00
13124;BME280;6627;50.920;12.050;2023-12-29T05:09:00;98097.78;;;16.08;43.29
13124;BME280;6627;50.920;12.050;2023-12-29T05:11:28;98173.19;;;16.92;42.29
13124;BME280;6627;50.920;12.050;2023-12-29T05:13:55;97968.56;;;15.41;43.54
13124;BME280;6627;50.920;12.050;2023-12-29T05:16:22;97944.28;;;14.92;44.21
13124;BME280;6627;50.920;12.050;2023-12-29T05:18:50;98018.28;;;15.50;43.68
13124;BME280;6627;50.920;12.050;2023-12-29T05:21:18;98038.97;;;15.51;43.94
13124;BME280;6627;50.920;12.050;2023-12-29T05:23:48;98033.06;;;15.49;44.04
13124;BME280;6627;50.920;12.050;2023-12-29T05:26:15;98033.00;;;15.61;43.66
13124;BME280;6627;50.920;12.050;2023-12-29T05:28:44;97933.97;;;14.85;44.19
13124;BME280;6627;50.920;12.050;2023-12-29T05:31:11;97995.72;;;15.21;44.26
13124;BME280;6627;50.920;12.050;2023-12-29T05:33:38;98013.56;;;15.78;43.01
13124;BME280;6627;50.920;12.050;2023-12-29T05:36:11;98047.19;;;16.14;42.54
13124;BME280;6627;50.920;12.050;2023-12-29T05:38:39;98059.53;;;16.08;42.77
13124;BME280;6627;50.920;12.050;2023-12-29T05:41:13;98031.19;;;15.65;43.29
13124;BME280;6627;50.920;12.050;2023-12-29T05:43:40;98104.47;;;16.26;42.94
13124;BME280;6627;50.920;12.050;2023-12-29T05:46:12;98038.38;;;15.89;42.86
13124;BME280;6627;50.920;12.050;2023-12-29T05:48:40;97997.78;;;15.56;43.27
13124;BME280;6627;50.920;12.050;2023-12-29T05:51:09;98040.31;;;15.88;42.83
13124;BME280;6627;50.920;12.050;2023-12-29T05:53:36;97973.13;;;15.52;43.00
13124;BME280;6627;50.920;12.050;2023-12-29T05:56:11;98004.53;;;15.62;43.11
13124;BME280;6627;50.920;12.050;2023-12-29T05:58:52;98003.09;;;15.64;43.23
13124;BME280;6627;50.920;12.050;2023-12-29T06:01:39;98016.56;;;15.73;43.48
13124;BME280;6627;50.920;12.050;2023-12-29T06:04:22;98013.03;;;15.88;42.91
13124;BME280;6627;50.920;12.050;2023-12-29T06:07:03;98029.31;;;15.69;43.74
13124;BME280;6627;50.920;12.050;2023-12-29T06:09:31;98035.22;;;15.71;43.93
13124;BME280;6627;50.920;12.050;2023-12-29T06:12:13;97976.03;;;15.75;43.08
13124;BME280;6627;50.920;12.050;2023-12-29T06:15:00;98054.22;;;16.15;43.35
13124;BME280;6627;50.920;12.050;2023-12-29T06:17:36;98046.94;;;16.03;43.55
13124;BME280;6627;50.920;12.050;2023-12-29T06:20:23;98002.81;;;15.54;44.00
13124;BME280;6627;50.920;12.050;2023-12-29T06:22:50;97927.69;;;14.97;44.96
13124;BME280;6627;50.920;12.050;2023-12-29T06:25:27;98015.72;;;15.57;44.65
13124;BME280;6627;50.920;12.050;2023-12-29T06:27:56;98183.28;;;17.07;42.95
13124;BME280;6627;50.920;12.050;2023-12-29T06:30:24;97888.59;;;14.77;45.04
13124;BME280;6627;50.920;12.050;2023-12-29T06:32:51;97984.63;;;15.14;45.44
13124;BME280;6627;50.920;12.050;2023-12-29T06:35:19;97979.03;;;14.95;45.91
13124;BME280;6627;50.920;12.050;2023-12-29T06:37:46;97969.81;;;14.71;46.43
13124;BME280;6627;50.920;12.050;2023-12-29T06:40:15;98096.72;;;15.97;44.77
13124;BME280;6627;50.920;12.050;2023-12-29T06:42:44;98035.00;;;15.32;45.77
13124;BME280;6627;50.920;12.050;2023-12-29T06:45:12;98019.03;;;15.19;45.90
13124;BME280;6627;50.920;12.050;2023-12-29T06:47:40;98027.91;;;14.87;46.75
13124;BME280;6627;50.920;12.050;2023-12-29T06:50:09;98118.56;;;15.97;45.10
13124;BME280;6627;50.920;12.050;2023-12-29T06:52:39;98104.44;;;15.79;45.23
13124;BME280;6627;50.920;12.050;2023-12-29T06:55:07;98007.13;;;15.11;45.60
13124;BME280;6627;50.920;12.050;2023-12-29T06:57:35;98024.81;;;15.17;45.54
13124;BME280;6627;50.920;12.050;2023-12-29T07:00:04;98107.19;;;15.51;45.88
13124;BME280;6627;50.920;12.050;2023-12-29T07:02:37;97985.63;;;14.94;45.58
13124;BME280;6627;50.920;12.050;2023-12-29T07:05:06;98127.34;;;15.74;45.43
13124;BME280;6627;50.920;12.050;2023-12-29T07:07:35;98035.88;;;15.36;45.02
13124;BME280;6627;50.920;12.050;2023-12-29T07:10:04;98080.53;;;15.16;46.43
13124;BME280;6627;50.920;12.050;2023-12-29T07:12:33;98182.16;;;15.81;45.95
13124;BME280;6627;50.920;12.050;2023-12-29T07:15:00;98193.84;;;16.42;44.63
13124;BME280;6627;50.920;12.050;2023-12-29T07:17:44;98184.13;;;16.28;44.62
13124;BME280;6627;50.920;12.050;2023-12-29T07:20:12;98113.97;;;16.01;44.59
13124;BME280;6627;50.920;12.050;2023-12-29T07:22:40;98234.63;;;16.78;44.25
13124;BME280;6627;50.920;12.050;2023-12-29T07:25:08;98147.75;;;16.40;44.25
13124;BME280;6627;50.920;12.050;2023-12-29T07:27:35;98136.19;;;16.15;44.54
13124;BME280;6627;50.920;12.050;2023-12-29T07:30:03;98219.28;;;16.74;44.12
13124;BME280;6627;50.920;12.050;2023-12-29T07:32:31;98159.66;;;16.48;44.11
13124;BME280;6627;50.920;12.050;2023-12-29T07:35:00;98174.06;;;16.96;42.81
13124;BME280;6627;50.920;12.050;2023-12-29T07:37:27;98085.19;;;16.03;44.41
13124;BME280;6627;50.920;12.050;2023-12-29T07:39:54;98114.69;;;15.98;44.72
13124;BME280;6627;50.920;12.050;2023-12-29T07:42:25;98137.25;;;15.95;45.00
13124;BME280;6627;50.920;12.050;2023-12-29T07:45:12;98181.88;;;16.78;43.82
13124;BME280;6627;50.920;12.050;2023-12-29T07:47:51;98091.59;;;16.11;44.32
13124;BME280;6627;50.920;12.050;2023-12-29T07:50:20;98152.13;;;16.29;44.52
13124;BME280;6627;50.920;12.050;2023-12-29T07:52:54;98183.69;;;16.58;44.26
13124;BME280;6627;50.920;12.050;2023-12-29T07:55:43;98092.22;;;15.73;45.19
13124;BME280;6627;50.920;12.050;2023-12-29T07:58:24;98149.06;;;15.99;45.34
13124;BME280;6627;50.920;12.050;2023-12-29T08:00:52;98220.13;;;16.62;44.75
13124;BME280;6627;50.920;12.050;2023-12-29T08:03:20;98290.31;;;17.21;44.22
13124;BME280;6627;50.920;12.050;2023-12-29T08:06:01;98175.25;;;16.31;44.82
13124;BME280;6627;50.920;12.050;2023-12-29T08:08:41;98173.47;;;16.55;44.12
13124;BME280;6627;50.920;12.050;2023-12-29T08:11:13;98221.38;;;16.80;44.34
13124;BME280;6627;50.920;12.050;2023-12-29T08:13:57;98286.91;;;17.08;44.60
13124;BME280;6627;50.920;12.050;2023-12-29T08:16:25;98179.72;;;16.71;44.07
13124;BME280;6627;50.920;12.050;2023-12-29T08:19:12;98140.34;;;16.25;44.69
13124;BME280;6627;50.920;12.050;2023-12-29T08:21:51;98169.59;;;16.24;45.31
13124;BME280;6627;50.920;12.050;2023-12-29T08:24:29;98246.13;;;16.72;44.86
13124;BME280;6627;50.920;12.050;2023-12-29T08:27:23;98166.16;;;16.27;45.07
13124;BME280;6627;50.920;12.050;2023-12-29T08:29:50;98160.78;;;16.15;45.27
13124;BME280;6627;50.920;12.050;2023-12-29T08:32:18;98161.22;;;16.17;45.40
13124;BME280;6627;50.920;12.050;2023-12-29T08:35:00;98218.00;;;16.71;44.89
13124;BME280;6627;50.920;12.050;2023-12-29T08:37:37;98164.59;;;16.26;45.43
13124;BME280;6627;50.920;12.050;2023-12-29T08:40:16;98256.94;;;16.96;44.76
13124;BME280;6627;50.920;12.050;2023-12-29T08:42:43;98198.44;;;16.69;44.72
13124;BME280;6627;50.920;12.050;2023-12-29T08:45:13;98255.16;;;16.88;45.22
13124;BME280;6627;50.920;12.050;2023-12-29T08:48:00;98169.94;;;16.23;45.41
13124;BME280;6627;50.920;12.050;2023-12-29T08:50:46;98228.28;;;16.74;45.17
13124;BME280;6627;50.920;12.050;2023-12-29T08:53:16;98212.53;;;16.71;45.06
13124;BME280;6627;50.920;12.050;2023-12-29T08:55:46;98241.44;;;17.04;44.70
13124;BME280;6627;50.920;12.050;2023-12-29T08:58:13;98205.03;;;16.68;44.97
13124;BME280;6627;50.920;12.050;2023-12-29T09:00:41;98202.22;;;16.49;45.38
13124;BME280;6627;50.920;12.050;2023-12-29T09:03:22;98172.94;;;16.33;45.42
13124;BME280;6627;50.920;12.050;2023-12-29T09:06:02;98129.72;;;15.76;45.87
13124;BME280;6627;50.920;12.050;2023-12-29T09:08:31;98212.19;;;16.57;45.22
13124;BME280;6627;50.920;12.050;2023-12-29T09:11:11;98192.78;;;16.62;44.74
13124;BME280;6627;50.920;12.050;2023-12-29T09:13:38;98144.03;;;15.85;46.01
13124;BME280;6627;50.920;12.050;2023-12-29T09:16:06;98268.13;;;16.75;45.69
13124;BME280;6627;50.920;12.050;2023-12-29T09:18:45;98275.53;;;17.22;44.56
13124;BME280;6627;50.920;12.050;2023-12-29T09:21:13;98163.84;;;15.98;45.89
13124;BME280;6627;50.920;12.050;2023-12-29T09:23:42;98236.44;;;16.43;45.63
13124;BME280;6627;50.920;12.050;2023-12-29T09:26:24;98230.88;;;16.55;45.54
13124;BME280;6627;50.920;12.050;2023-12-29T09:28:53;98205.84;;;16.21;45.93
13124;BME280;6627;50.920;12.050;2023-12-29T09:31:34;98223.53;;;16.27;45.96
13124;BME280;6627;50.920;12.050;2023-12-29T09:34:02;98246.13;;;16.72;45.39
13124;BME280;6627;50.920;12.050;2023-12-29T09:36:45;98252.59;;;16.79;45.28
13124;BME280;6627;50.920;12.050;2023-12-29T09:39:33;98223.91;;;16.57;45.40
13124;BME280;6627;50.920;12.050;2023-12-29T09:42:20;98256.38;;;16.90;45.22
13124;BME280;6627;50.920;12.050;2023-12-29T09:45:03;98271.66;;;16.92;45.28
13124;BME280;6627;50.920;12.050;2023-12-29T09:47:38;98190.22;;;16.22;45.92
13124;BME280;6627;50.920;12.050;2023-12-29T09:50:21;98202.84;;;16.26;45.63
13124;BME280;6627;50.920;12.050;2023-12-29T09:53:03;98260.28;;;16.89;44.86
13124;BME280;6627;50.920;12.050;2023-12-29T09:55:52;98300.00;;;17.34;44.69
13124;BME280;6627;50.920;12.050;2023-12-29T09:58:22;98280.13;;;17.53;43.76
13124;BME280;6627;50.920;12.050;2023-12-29T10:00:52;98293.19;;;17.79;43.57
13124;BME280;6627;50.920;12.050;2023-12-29T10:03:22;98253.66;;;17.61;43.46
13124;BME280;6627;50.920;12.050;2023-12-29T10:05:54;98146.59;;;16.57;44.42
13124;BME280;6627;50.920;12.050;2023-12-29T10:08:24;98270.81;;;17.58;43.77
13124;BME280;6627;50.920;12.050;2023-12-29T10:10:55;98275.91;;;17.75;43.31
13124;BME280;6627;50.920;12.050;2023-12-29T10:13:41;98234.28;;;17.15;43.96
13124;BME280;6627;50.920;12.050;2023-12-29T10:16:28;98301.72;;;18.13;42.86
13124;BME280;6627;50.920;12.050;2023-12-29T10:19:10;98115.34;;;16.58;44.41
13124;BME280;6627;50.920;12.050;2023-12-29T10:22:10;98226.56;;;17.36;43.81
13124;BME280;6627;50.920;12.050;2023-12-29T10:24:55;98233.69;;;17.60;43.27
13124;BME280;6627;50.920;12.050;2023-12-29T10:27:43;98239.78;;;17.34;44.08
13124;BME280;6627;50.920;12.050;2023-12-29T10:30:12;98163.44;;;16.75;44.72
13124;BME280;6627;50.920;12.050;2023-12-29T10:33:00;98197.63;;;16.84;44.61
13124;BME280;6627;50.920;12.050;2023-12-29T10:35:30;98160.53;;;16.52;45.15
13124;BME280;6627;50.920;12.050;2023-12-29T10:38:08;98192.16;;;16.84;44.49
13124;BME280;6627;50.920;12.050;2023-12-29T10:40:37;98294.44;;;17.66;44.22
13124;BME280;6627;50.920;12.050;2023-12-29T10:43:25;98240.28;;;17.21;44.36
13124;BME280;6627;50.920;12.050;2023-12-29T10:46:06;98223.78;;;17.17;44.28
13124;BME280;6627;50.920;12.050;2023-12-29T10:48:36;98199.59;;;16.52;45.59
13124;BME280;6627;50.920;12.050;2023-12-29T10:51:05;98195.53;;;16.78;44.88
13124;BME280;6627;50.920;12.050;2023-12-29T10:53:35;98172.25;;;16.21;46.03
13124;BME280;6627;50.920;12.050;2023-12-29T10:56:20;98229.47;;;16.93;44.96
13124;BME280;6627;50.920;12.050;2023-12-29T10:59:00;98223.22;;;16.76;45.65
13124;BME280;6627;50.920;12.050;2023-12-29T11:01:29;98217.34;;;16.74;45.63
13124;BME280;6627;50.920;12.050;2023-12-29T11:04:00;98322.41;;;17.56;44.89
13124;BME280;6627;50.920;12.050;2023-12-29T11:06:29;98264.22;;;17.08;45.28
13124;BME280;6627;50.920;12.050;2023-12-29T11:09:00;98178.47;;;16.69;45.36
13124;BME280;6627;50.920;12.050;2023-12-29T11:11:37;98278.72;;;16.93;46.09
13124;BME280;6627;50.920;12.050;2023-12-29T11:14:21;98256.66;;;17.36;44.82
13124;BME280;6627;50.920;12.050;2023-12-29T11:17:05;98239.25;;;17.45;44.53
13124;BME280;6627;50.920;12.050;2023-12-29T11:19:35;98294.88;;;18.03;44.20
13124;BME280;6627;50.920;12.050;2023-12-29T11:22:14;98260.59;;;17.55;44.69
13124;BME280;6627;50.920;12.050;2023-12-29T11:25:01;98241.03;;;17.56;44.13
13124;BME280;6627;50.920;12.050;2023-12-29T11:27:49;98205.94;;;17.23;44.81
13124;BME280;6627;50.920;12.050;2023-12-29T11:30:32;98255.84;;;17.71;44.20
13124;BME280;6627;50.920;12.050;2023-12-29T11:33:10;98221.97;;;17.40;44.39
13124;BME280;6627;50.920;12.050;2023-12-29T11:35:49;98153.59;;;16.89;44.93
13124;BME280;6627;50.920;12.050;2023-12-29T11:38:48;98218.59;;;17.12;45.21
13124;BME280;6627;50.920;12.050;2023-12-29T11:41:33;98190.63;;;17.03;45.04
13124;BME280;6627;50.920;12.050;2023-12-29T11:44:25;98204.03;;;17.08;45.12
13124;BME280;6627;50.920;12.050;2023-12-29T11:47:38;98200.19;;;17.28;44.65
13124;BME280;6627;50.920;12.050;2023-12-29T11:50:33;98206.66;;;17.20;44.95
13124;BME280;6627;50.920;12.050;2023-12-29T11:53:03;98278.22;;;17.93;44.40
13124;BME280;6627;50.920;12.050;2023-12-29T11:55:50;98195.75;;;17.59;44.14
13124;BME280;6627;50.920;12.050;2023-12-29T11:58:25;98211.44;;;17.43;44.53
13124;BME280;6627;50.920;12.050;2023-12-29T12:01:14;98175.97;;;17.30;44.22
13124;BME280;6627;50.920;12.050;2023-12-29T12:03:54;98176.53;;;17.20;44.31
13124;BME280;6627;50.920;12.050;2023-12-29T12:06:39;98197.09;;;17.49;44.28
13124;BME280;6627;50.920;12.050;2023-12-29T12:09:22;98150.34;;;17.19;44.27
13124;BME280;6627;50.920;12.050;2023-12-29T12:11:53;98155.81;;;17.38;44.09
13124;BME280;6627;50.920;12.050;2023-12-29T12:14:49;98162.69;;;17.13;44.80
13124;BME280;6627;50.920;12.050;2023-12-29T12:17:35;98149.16;;;17.01;44.51
13124;BME280;6627;50.920;12.050;2023-12-29T12:20:09;98173.97;;;17.27;44.35
13124;BME280;6627;50.920;12.050;2023-12-29T12:22:57;98160.97;;;17.05;44.83
13124;BME280;6627;50.920;12.050;2023-12-29T12:25:38;98116.75;;;16.83;44.65
13124;BME280;6627;50.920;12.050;2023-12-29T12:28:09;98171.38;;;17.34;44.27
13124;BME280;6627;50.920;12.050;2023-12-29T12:30:36;98100.69;;;16.66;44.88
13124;BME280;6627;50.920;12.050;2023-12-29T12:33:18;98160.72;;;17.29;44.39
13124;BME280;6627;50.920;12.050;2023-12-29T12:36:01;98146.03;;;17.18;44.66
13124;BME280;6627;50.920;12.050;2023-12-29T12:38:51;98198.34;;;17.71;43.92
13124;BME280;6627;50.920;12.050;2023-12-29T12:41:19;98167.34;;;17.48;44.45
13124;BME280;6627;50.920;12.050;2023-12-29T12:43:58;98178.16;;;17.79;43.63
13124;BME280;6627;50.920;12.050;2023-12-29T12:46:50;98192.94;;;17.75;43.99
13124;BME280;6627;50.920;12.050;2023-12-29T12:49:20;98161.00;;;17.44;44.21
13124;BME280;6627;50.920;12.050;2023-12-29T12:51:57;98178.53;;;17.58;43.97
13124;BME280;6627;50.920;12.050;2023-12-29T12:54:27;98102.59;;;17.17;44.09
13124;BME280;6627;50.920;12.050;2023-12-29T12:57:00;98097.16;;;16.81;44.91
13124;BME280;6627;50.920;12.050;2023-12-29T12:59:49;98129.47;;;16.95;45.05
13124;BME280;6627;50.920;12.050;2023-12-29T13:02:17;98107.59;;;16.95;44.90
13124;BME280;6627;50.920;12.050;2023-12-29T13:05:02;98159.50;;;17.46;44.41
13124;BME280;6627;50.920;12.050;2023-12-29T13:07:55;98101.22;;;16.87;44.92
13124;BME280;6627;50.920;12.050;2023-12-29T13:10:25;98190.38;;;17.66;44.37
13124;BME280;6627;50.920;12.050;2023-12-29T13:12:53;98160.72;;;17.29;44.40
13124;BME280;6627;50.920;12.050;2023-12-29T13:15:47;98120.28;;;17.03;44.94
13124;BME280;6627;50.920;12.050;2023-12-29T13:18:32;98115.88;;;16.99;45.20
13124;BME280;6627;50.920;12.050;2023-12-29T13:21:01;98140.25;;;17.23;44.76
13124;BME280;6627;50.920;12.050;2023-12-29T13:23:32;98113.16;;;16.99;45.17
13124;BME280;6627;50.920;12.050;2023-12-29T13:26:07;98154.78;;;17.08;45.79
13124;BME280;6627;50.920;12.050;2023-12-29T13:28:37;98179.91;;;17.49;45.04
13124;BME280;6627;50.920;12.050;2023-12-29T13:31:07;98151.69;;;17.48;44.60
13124;BME280;6627;50.920;12.050;2023-12-29T13:33:59;98123.56;;;17.09;45.05